sensor_id;sensor_type;location;lat;lon;timestamp;P1;durP1;ratioP1;P2;durP2;ratioP2
58252;SDS011;44050;48.884;8.762;2023-03-05T00:02:03;9.77;;;5.65;;
58252;SDS011;44050;48.884;8.762;2023-03-05T00:04:37;12.25;;;6.53;;
58252;SDS011;44050;48.884;8.762;2023-03-05T00:07:08;7.38;;;5.30;;
58252;SDS011;44050;48.884;8.762;2023-03-05T00:09:41;7.28;;;5.53;;
58252;SDS011;44050;48.884;8.762;2023-03-05T00:12:12;12.13;;;6.85;;
58252;SDS011;44050;48.884;8.762;2023-03-05T00:14:43;9.20;;;6.85;;
58252;SDS011;44050;48.884;8.762;2023-03-05T00:17:20;13.88;;;6.43;;
58252;SDS011;44050;48.884;8.762;2023-03-05T00:19:57;9.25;;;6.40;;
58252;SDS011;44050;48.884;8.762;2023-03-05T00:22:28;17.27;;;6.07;;
58252;SDS011;44050;48.884;8.762;2023-03-05T00:24:59;7.80;;;5.90;;
58252;SDS011;44050;48.884;8.762;2023-03-05T00:27:30;18.58;;;7.63;;
58252;SDS011;44050;48.884;8.762;2023-03-05T00:30:00;8.13;;;5.43;;
58252;SDS011;44050;48.884;8.762;2023-03-05T00:32:31;9.90;;;6.60;;
58252;SDS011;44050;48.884;8.762;2023-03-05T00:35:02;10.77;;;6.55;;
58252;SDS011;44050;48.884;8.762;2023-03-05T00:37:33;11.02;;;6.45;;
58252;SDS011;44050;48.884;8.762;2023-03-05T00:40:04;6.47;;;4.97;;
58252;SDS011;44050;48.884;8.762;2023-03-05T00:42:34;7.82;;;4.53;;
58252;SDS011;44050;48.884;8.762;2023-03-05T00:45:08;9.85;;;6.50;;
58252;SDS011;44050;48.884;8.762;2023-03-05T00:47:39;8.23;;;5.57;;
58252;SDS011;44050;48.884;8.762;2023-03-05T00:50:10;6.97;;;3.80;;
58252;SDS011;44050;48.884;8.762;2023-03-05T00:52:40;11.95;;;6.68;;
58252;SDS011;44050;48.884;8.762;2023-03-05T00:55:12;8.00;;;4.45;;
58252;SDS011;44050;48.884;8.762;2023-03-05T00:57:43;9.40;;;5.13;;
58252;SDS011;44050;48.884;8.762;2023-03-05T01:00:14;7.68;;;5.50;;
58252;SDS011;44050;48.884;8.762;2023-03-05T01:02:45;9.32;;;5.43;;
58252;SDS011;44050;48.884;8.762;2023-03-05T01:05:16;18.75;;;6.13;;
58252;SDS011;44050;48.884;8.762;2023-03-05T01:07:50;7.65;;;5.40;;
58252;SDS011;44050;48.884;8.762;2023-03-05T01:10:21;11.27;;;4.97;;
58252;SDS011;44050;48.884;8.762;2023-03-05T01:12:53;7.72;;;4.93;;
58252;SDS011;44050;48.884;8.762;2023-03-05T01:15:24;7.60;;;5.18;;
58252;SDS011;44050;48.884;8.762;2023-03-05T01:17:55;8.52;;;3.85;;
58252;SDS011;44050;48.884;8.762;2023-03-05T01:20:26;13.37;;;6.27;;
58252;SDS011;44050;48.884;8.762;2023-03-05T01:22:57;8.43;;;4.45;;
58252;SDS011;44050;48.884;8.762;2023-03-05T01:25:28;10.15;;;6.40;;
58252;SDS011;44050;48.884;8.762;2023-03-05T01:27:59;10.23;;;4.50;;
58252;SDS011;44050;48.884;8.762;2023-03-05T01:30:30;9.05;;;5.22;;
58252;SDS011;44050;48.884;8.762;2023-03-05T01:33:01;9.02;;;4.88;;
58252;SDS011;44050;48.884;8.762;2023-03-05T01:35:32;7.00;;;4.50;;
58252;SDS011;44050;48.884;8.762;2023-03-05T01:38:03;10.00;;;4.93;;
58252;SDS011;44050;48.884;8.762;2023-03-05T01:40:34;8.47;;;6.43;;
58252;SDS011;44050;48.884;8.762;2023-03-05T01:43:18;11.13;;;3.97;;
58252;SDS011;44050;48.884;8.762;2023-03-05T01:48:39;7.65;;;4.80;;
58252;SDS011;44050;48.884;8.762;2023-03-05T01:51:11;11.70;;;4.43;;
58252;SDS011;44050;48.884;8.762;2023-03-05T01:53:42;11.55;;;5.07;;
58252;SDS011;44050;48.884;8.762;2023-03-05T01:56:12;4.33;;;2.93;;
58252;SDS011;44050;48.884;8.762;2023-03-05T01:58:44;9.60;;;4.90;;
58252;SDS011;44050;48.884;8.762;2023-03-05T02:01:15;9.48;;;4.50;;
58252;SDS011;44050;48.884;8.762;2023-03-05T02:03:46;6.85;;;3.55;;
58252;SDS011;44050;48.884;8.762;2023-03-05T02:06:18;6.03;;;3.97;;
58252;SDS011;44050;48.884;8.762;2023-03-05T02:08:49;8.02;;;4.55;;
58252;SDS011;44050;48.884;8.762;2023-03-05T02:11:19;10.45;;;4.95;;
58252;SDS011;44050;48.884;8.762;2023-03-05T02:13:54;6.50;;;4.50;;
58252;SDS011;44050;48.884;8.762;2023-03-05T02:16:27;4.15;;;3.53;;
58252;SDS011;44050;48.884;8.762;2023-03-05T02:19:06;6.70;;;4.97;;
58252;SDS011;44050;48.884;8.762;2023-03-05T02:21:44;9.65;;;3.85;;
58252;SDS011;44050;48.884;8.762;2023-03-05T02:24:16;9.70;;;6.28;;
58252;SDS011;44050;48.884;8.762;2023-03-05T02:26:48;6.15;;;3.67;;
58252;SDS011;44050;48.884;8.762;2023-03-05T02:29:19;6.00;;;5.15;;
58252;SDS011;44050;48.884;8.762;2023-03-05T02:31:50;5.20;;;4.07;;
58252;SDS011;44050;48.884;8.762;2023-03-05T02:34:21;4.28;;;3.58;;
58252;SDS011;44050;48.884;8.762;2023-03-05T02:36:53;7.00;;;4.10;;
58252;SDS011;44050;48.884;8.762;2023-03-05T02:39:27;8.50;;;4.45;;
58252;SDS011;44050;48.884;8.762;2023-03-05T02:41:58;10.73;;;5.15;;
58252;SDS011;44050;48.884;8.762;2023-03-05T02:44:28;15.98;;;3.92;;
58252;SDS011;44050;48.884;8.762;2023-03-05T02:46:59;6.85;;;5.78;;
58252;SDS011;44050;48.884;8.762;2023-03-05T02:49:30;7.45;;;5.20;;
58252;SDS011;44050;48.884;8.762;2023-03-05T02:52:01;11.80;;;5.33;;
58252;SDS011;44050;48.884;8.762;2023-03-05T02:54:32;13.05;;;5.28;;
58252;SDS011;44050;48.884;8.762;2023-03-05T02:57:02;5.65;;;4.40;;
58252;SDS011;44050;48.884;8.762;2023-03-05T02:59:33;8.45;;;5.18;;
58252;SDS011;44050;48.884;8.762;2023-03-05T03:02:04;5.20;;;4.57;;
58252;SDS011;44050;48.884;8.762;2023-03-05T03:04:35;7.93;;;5.03;;
58252;SDS011;44050;48.884;8.762;2023-03-05T03:07:05;8.40;;;5.93;;
58252;SDS011;44050;48.884;8.762;2023-03-05T03:09:37;8.43;;;6.00;;
58252;SDS011;44050;48.884;8.762;2023-03-05T03:12:08;10.93;;;6.00;;
58252;SDS011;44050;48.884;8.762;2023-03-05T03:14:40;11.25;;;4.47;;
58252;SDS011;44050;48.884;8.762;2023-03-05T03:17:12;7.88;;;4.90;;
58252;SDS011;44050;48.884;8.762;2023-03-05T03:19:44;10.70;;;5.32;;
58252;SDS011;44050;48.884;8.762;2023-03-05T03:22:15;7.43;;;3.83;;
58252;SDS011;44050;48.884;8.762;2023-03-05T03:24:46;8.68;;;5.82;;
58252;SDS011;44050;48.884;8.762;2023-03-05T03:27:16;9.38;;;5.80;;
58252;SDS011;44050;48.884;8.762;2023-03-05T03:29:47;8.07;;;5.33;;
58252;SDS011;44050;48.884;8.762;2023-03-05T03:32:18;10.95;;;5.85;;
58252;SDS011;44050;48.884;8.762;2023-03-05T03:34:49;6.00;;;4.03;;
58252;SDS011;44050;48.884;8.762;2023-03-05T03:37:19;7.28;;;4.22;;
58252;SDS011;44050;48.884;8.762;2023-03-05T03:39:50;7.80;;;5.60;;
58252;SDS011;44050;48.884;8.762;2023-03-05T03:42:21;9.60;;;3.93;;
58252;SDS011;44050;48.884;8.762;2023-03-05T03:47:23;5.87;;;5.27;;
58252;SDS011;44050;48.884;8.762;2023-03-05T03:49:57;8.75;;;5.07;;
58252;SDS011;44050;48.884;8.762;2023-03-05T03:52:28;3.65;;;3.28;;
58252;SDS011;44050;48.884;8.762;2023-03-05T03:54:59;8.23;;;4.47;;
58252;SDS011;44050;48.884;8.762;2023-03-05T03:57:31;9.55;;;4.15;;
58252;SDS011;44050;48.884;8.762;2023-03-05T04:02:42;7.88;;;4.32;;
58252;SDS011;44050;48.884;8.762;2023-03-05T04:05:13;7.23;;;5.30;;
58252;SDS011;44050;48.884;8.762;2023-03-05T04:07:43;8.40;;;6.13;;
58252;SDS011;44050;48.884;8.762;2023-03-05T04:10:15;9.30;;;5.20;;
58252;SDS011;44050;48.884;8.762;2023-03-05T04:12:46;10.43;;;5.18;;
58252;SDS011;44050;48.884;8.762;2023-03-05T04:15:16;10.68;;;4.38;;
58252;SDS011;44050;48.884;8.762;2023-03-05T04:17:47;5.10;;;4.53;;
58252;SDS011;44050;48.884;8.762;2023-03-05T04:20:18;10.67;;;5.13;;
58252;SDS011;44050;48.884;8.762;2023-03-05T04:22:49;8.93;;;4.30;;
58252;SDS011;44050;48.884;8.762;2023-03-05T04:25:20;6.65;;;4.43;;
58252;SDS011;44050;48.884;8.762;2023-03-05T04:27:54;7.18;;;4.85;;
58252;SDS011;44050;48.884;8.762;2023-03-05T04:30:25;6.88;;;4.05;;
58252;SDS011;44050;48.884;8.762;2023-03-05T04:32:56;8.47;;;6.10;;
58252;SDS011;44050;48.884;8.762;2023-03-05T04:35:26;12.50;;;5.72;;
58252;SDS011;44050;48.884;8.762;2023-03-05T04:37:57;7.78;;;3.67;;
58252;SDS011;44050;48.884;8.762;2023-03-05T04:40:28;4.05;;;3.47;;
58252;SDS011;44050;48.884;8.762;2023-03-05T04:42:59;3.83;;;3.28;;
58252;SDS011;44050;48.884;8.762;2023-03-05T04:45:30;7.13;;;3.97;;
58252;SDS011;44050;48.884;8.762;2023-03-05T04:48:00;6.68;;;4.05;;
58252;SDS011;44050;48.884;8.762;2023-03-05T04:50:31;6.93;;;4.75;;
58252;SDS011;44050;48.884;8.762;2023-03-05T04:53:02;9.77;;;5.63;;
58252;SDS011;44050;48.884;8.762;2023-03-05T04:55:33;10.60;;;4.88;;
58252;SDS011;44050;48.884;8.762;2023-03-05T04:58:04;10.20;;;5.50;;
58252;SDS011;44050;48.884;8.762;2023-03-05T05:00:34;9.48;;;4.50;;
58252;SDS011;44050;48.884;8.762;2023-03-05T05:03:05;11.75;;;5.72;;
58252;SDS011;44050;48.884;8.762;2023-03-05T05:05:36;7.23;;;3.40;;
58252;SDS011;44050;48.884;8.762;2023-03-05T05:08:07;6.40;;;3.25;;
58252;SDS011;44050;48.884;8.762;2023-03-05T05:10:38;3.30;;;3.00;;
58252;SDS011;44050;48.884;8.762;2023-03-05T05:15:40;6.32;;;3.25;;
58252;SDS011;44050;48.884;8.762;2023-03-05T05:18:11;8.27;;;4.32;;
58252;SDS011;44050;48.884;8.762;2023-03-05T05:20:41;5.10;;;3.63;;
58252;SDS011;44050;48.884;8.762;2023-03-05T05:23:12;13.07;;;5.40;;
58252;SDS011;44050;48.884;8.762;2023-03-05T05:25:43;4.85;;;3.13;;
58252;SDS011;44050;48.884;8.762;2023-03-05T05:28:14;5.07;;;4.03;;
58252;SDS011;44050;48.884;8.762;2023-03-05T05:30:44;5.37;;;4.47;;
58252;SDS011;44050;48.884;8.762;2023-03-05T05:33:15;8.05;;;3.85;;
58252;SDS011;44050;48.884;8.762;2023-03-05T05:35:46;5.80;;;2.93;;
58252;SDS011;44050;48.884;8.762;2023-03-05T05:38:17;5.65;;;3.92;;
58252;SDS011;44050;48.884;8.762;2023-03-05T05:40:48;7.78;;;3.25;;
58252;SDS011;44050;48.884;8.762;2023-03-05T05:43:19;3.33;;;3.07;;
58252;SDS011;44050;48.884;8.762;2023-03-05T05:45:49;6.50;;;3.37;;
58252;SDS011;44050;48.884;8.762;2023-03-05T05:48:20;6.67;;;3.70;;
58252;SDS011;44050;48.884;8.762;2023-03-05T05:50:51;7.63;;;4.35;;
58252;SDS011;44050;48.884;8.762;2023-03-05T05:53:22;5.13;;;3.33;;
58252;SDS011;44050;48.884;8.762;2023-03-05T05:55:53;5.78;;;3.67;;
58252;SDS011;44050;48.884;8.762;2023-03-05T05:58:23;6.73;;;4.17;;
58252;SDS011;44050;48.884;8.762;2023-03-05T06:00:54;7.23;;;4.30;;
58252;SDS011;44050;48.884;8.762;2023-03-05T06:03:25;7.63;;;3.80;;
58252;SDS011;44050;48.884;8.762;2023-03-05T06:05:56;8.27;;;5.40;;
58252;SDS011;44050;48.884;8.762;2023-03-05T06:08:27;11.32;;;5.25;;
58252;SDS011;44050;48.884;8.762;2023-03-05T06:10:58;19.17;;;4.60;;
58252;SDS011;44050;48.884;8.762;2023-03-05T06:13:29;2.95;;;2.15;;
58252;SDS011;44050;48.884;8.762;2023-03-05T06:16:04;5.50;;;3.45;;
58252;SDS011;44050;48.884;8.762;2023-03-05T06:18:35;9.23;;;5.35;;
58252;SDS011;44050;48.884;8.762;2023-03-05T06:21:06;9.20;;;3.40;;
58252;SDS011;44050;48.884;8.762;2023-03-05T06:23:37;4.10;;;3.25;;
58252;SDS011;44050;48.884;8.762;2023-03-05T06:26:09;6.28;;;3.70;;
58252;SDS011;44050;48.884;8.762;2023-03-05T06:28:41;5.47;;;3.35;;
58252;SDS011;44050;48.884;8.762;2023-03-05T06:31:15;5.70;;;4.68;;
58252;SDS011;44050;48.884;8.762;2023-03-05T06:33:47;4.40;;;3.78;;
58252;SDS011;44050;48.884;8.762;2023-03-05T06:36:19;5.90;;;4.07;;
58252;SDS011;44050;48.884;8.762;2023-03-05T06:41:21;6.03;;;4.40;;
58252;SDS011;44050;48.884;8.762;2023-03-05T06:43:52;8.48;;;4.47;;
58252;SDS011;44050;48.884;8.762;2023-03-05T06:46:28;9.10;;;4.72;;
58252;SDS011;44050;48.884;8.762;2023-03-05T06:48:59;3.85;;;3.55;;
58252;SDS011;44050;48.884;8.762;2023-03-05T06:51:35;7.95;;;3.53;;
58252;SDS011;44050;48.884;8.762;2023-03-05T06:54:07;9.38;;;6.40;;
58252;SDS011;44050;48.884;8.762;2023-03-05T06:56:39;8.27;;;4.85;;
58252;SDS011;44050;48.884;8.762;2023-03-05T06:59:10;6.35;;;4.18;;
58252;SDS011;44050;48.884;8.762;2023-03-05T07:01:41;13.13;;;3.85;;
58252;SDS011;44050;48.884;8.762;2023-03-05T07:04:12;5.63;;;4.07;;
58252;SDS011;44050;48.884;8.762;2023-03-05T07:06:44;5.55;;;3.58;;
58252;SDS011;44050;48.884;8.762;2023-03-05T07:09:15;14.27;;;7.43;;
58252;SDS011;44050;48.884;8.762;2023-03-05T07:11:46;9.82;;;4.78;;
58252;SDS011;44050;48.884;8.762;2023-03-05T07:14:17;7.95;;;5.13;;
58252;SDS011;44050;48.884;8.762;2023-03-05T07:16:48;10.45;;;5.35;;
58252;SDS011;44050;48.884;8.762;2023-03-05T07:19:19;12.13;;;5.82;;
58252;SDS011;44050;48.884;8.762;2023-03-05T07:21:50;12.60;;;6.13;;
58252;SDS011;44050;48.884;8.762;2023-03-05T07:24:21;9.25;;;5.97;;
58252;SDS011;44050;48.884;8.762;2023-03-05T07:26:57;12.00;;;6.20;;
58252;SDS011;44050;48.884;8.762;2023-03-05T07:29:28;7.78;;;5.07;;
58252;SDS011;44050;48.884;8.762;2023-03-05T07:31:59;8.40;;;5.63;;
58252;SDS011;44050;48.884;8.762;2023-03-05T07:34:29;10.52;;;6.70;;
58252;SDS011;44050;48.884;8.762;2023-03-05T07:37:02;6.63;;;4.13;;
58252;SDS011;44050;48.884;8.762;2023-03-05T07:39:33;8.70;;;6.25;;
58252;SDS011;44050;48.884;8.762;2023-03-05T07:42:04;8.07;;;5.78;;
58252;SDS011;44050;48.884;8.762;2023-03-05T07:44:51;10.82;;;4.97;;
58252;SDS011;44050;48.884;8.762;2023-03-05T07:47:22;8.32;;;4.38;;
58252;SDS011;44050;48.884;8.762;2023-03-05T07:49:53;14.13;;;6.77;;
58252;SDS011;44050;48.884;8.762;2023-03-05T07:52:24;8.40;;;6.20;;
58252;SDS011;44050;48.884;8.762;2023-03-05T07:54:54;4.80;;;3.15;;
58252;SDS011;44050;48.884;8.762;2023-03-05T07:57:25;9.45;;;5.50;;
58252;SDS011;44050;48.884;8.762;2023-03-05T07:59:56;14.98;;;6.50;;
58252;SDS011;44050;48.884;8.762;2023-03-05T08:02:27;7.38;;;5.72;;
58252;SDS011;44050;48.884;8.762;2023-03-05T08:04:57;11.05;;;5.70;;
58252;SDS011;44050;48.884;8.762;2023-03-05T08:07:28;12.50;;;7.00;;
58252;SDS011;44050;48.884;8.762;2023-03-05T08:09:59;8.93;;;4.40;;
58252;SDS011;44050;48.884;8.762;2023-03-05T08:12:30;11.00;;;5.27;;
58252;SDS011;44050;48.884;8.762;2023-03-05T08:15:01;11.57;;;5.35;;
58252;SDS011;44050;48.884;8.762;2023-03-05T08:17:31;11.75;;;5.43;;
58252;SDS011;44050;48.884;8.762;2023-03-05T08:20:03;6.72;;;5.30;;
58252;SDS011;44050;48.884;8.762;2023-03-05T08:22:35;13.35;;;6.28;;
58252;SDS011;44050;48.884;8.762;2023-03-05T08:25:06;9.02;;;5.88;;
58252;SDS011;44050;48.884;8.762;2023-03-05T08:27:38;12.45;;;6.63;;
58252;SDS011;44050;48.884;8.762;2023-03-05T08:30:10;9.90;;;5.65;;
58252;SDS011;44050;48.884;8.762;2023-03-05T08:32:41;17.67;;;5.80;;
58252;SDS011;44050;48.884;8.762;2023-03-05T08:35:12;10.32;;;6.70;;
58252;SDS011;44050;48.884;8.762;2023-03-05T08:37:43;12.43;;;4.50;;
58252;SDS011;44050;48.884;8.762;2023-03-05T08:40:14;9.13;;;5.63;;
58252;SDS011;44050;48.884;8.762;2023-03-05T08:42:47;12.73;;;6.80;;
58252;SDS011;44050;48.884;8.762;2023-03-05T08:45:18;7.22;;;5.32;;
58252;SDS011;44050;48.884;8.762;2023-03-05T08:47:49;12.43;;;6.03;;
58252;SDS011;44050;48.884;8.762;2023-03-05T08:50:19;8.48;;;4.32;;
58252;SDS011;44050;48.884;8.762;2023-03-05T08:52:52;10.73;;;5.72;;
58252;SDS011;44050;48.884;8.762;2023-03-05T08:55:23;12.82;;;6.38;;
58252;SDS011;44050;48.884;8.762;2023-03-05T08:57:53;10.43;;;6.77;;
58252;SDS011;44050;48.884;8.762;2023-03-05T09:00:24;10.55;;;6.63;;
58252;SDS011;44050;48.884;8.762;2023-03-05T09:02:55;12.77;;;6.75;;
58252;SDS011;44050;48.884;8.762;2023-03-05T09:05:26;7.53;;;4.32;;
58252;SDS011;44050;48.884;8.762;2023-03-05T09:07:57;13.38;;;7.43;;
58252;SDS011;44050;48.884;8.762;2023-03-05T09:10:28;8.90;;;5.93;;
58252;SDS011;44050;48.884;8.762;2023-03-05T09:12:59;9.27;;;5.38;;
58252;SDS011;44050;48.884;8.762;2023-03-05T09:15:29;6.30;;;4.97;;
58252;SDS011;44050;48.884;8.762;2023-03-05T09:18:00;10.50;;;5.60;;
58252;SDS011;44050;48.884;8.762;2023-03-05T09:20:32;11.65;;;6.97;;
58252;SDS011;44050;48.884;8.762;2023-03-05T09:23:03;12.10;;;5.97;;
58252;SDS011;44050;48.884;8.762;2023-03-05T09:25:34;5.13;;;4.55;;
58252;SDS011;44050;48.884;8.762;2023-03-05T09:28:08;14.20;;;7.22;;
58252;SDS011;44050;48.884;8.762;2023-03-05T09:30:38;10.45;;;6.35;;
58252;SDS011;44050;48.884;8.762;2023-03-05T09:33:09;9.02;;;6.05;;
58252;SDS011;44050;48.884;8.762;2023-03-05T09:35:40;13.25;;;7.07;;
58252;SDS011;44050;48.884;8.762;2023-03-05T09:38:11;7.43;;;6.53;;
58252;SDS011;44050;48.884;8.762;2023-03-05T09:43:17;6.13;;;3.90;;
58252;SDS011;44050;48.884;8.762;2023-03-05T09:45:56;12.00;;;7.38;;
58252;SDS011;44050;48.884;8.762;2023-03-05T09:51:21;69.70;;;35.88;;
58252;SDS011;44050;48.884;8.762;2023-03-05T09:53:56;72.88;;;30.05;;
58252;SDS011;44050;48.884;8.762;2023-03-05T09:56:33;72.28;;;32.75;;
58252;SDS011;44050;48.884;8.762;2023-03-05T10:01:56;35.17;;;13.65;;
58252;SDS011;44050;48.884;8.762;2023-03-05T10:04:38;18.33;;;9.45;;
58252;SDS011;44050;48.884;8.762;2023-03-05T10:07:23;15.40;;;9.48;;
58252;SDS011;44050;48.884;8.762;2023-03-05T10:09:59;10.43;;;7.38;;
58252;SDS011;44050;48.884;8.762;2023-03-05T10:15:02;7.57;;;4.53;;
58252;SDS011;44050;48.884;8.762;2023-03-05T10:20:34;13.80;;;7.50;;
58252;SDS011;44050;48.884;8.762;2023-03-05T10:23:14;14.90;;;8.43;;
58252;SDS011;44050;48.884;8.762;2023-03-05T10:41:32;12.93;;;8.27;;
58252;SDS011;44050;48.884;8.762;2023-03-05T10:44:28;14.65;;;7.43;;
58252;SDS011;44050;48.884;8.762;2023-03-05T10:47:02;17.25;;;9.98;;
58252;SDS011;44050;48.884;8.762;2023-03-05T10:49:46;13.00;;;7.78;;
58252;SDS011;44050;48.884;8.762;2023-03-05T10:52:27;13.30;;;9.45;;
58252;SDS011;44050;48.884;8.762;2023-03-05T10:55:00;20.33;;;9.77;;
58252;SDS011;44050;48.884;8.762;2023-03-05T10:57:31;8.90;;;7.78;;
58252;SDS011;44050;48.884;8.762;2023-03-05T11:00:07;14.88;;;6.63;;
58252;SDS011;44050;48.884;8.762;2023-03-05T11:05:38;11.13;;;6.22;;
58252;SDS011;44050;48.884;8.762;2023-03-05T11:11:20;12.30;;;7.50;;
58252;SDS011;44050;48.884;8.762;2023-03-05T11:13:56;13.98;;;7.85;;
58252;SDS011;44050;48.884;8.762;2023-03-05T11:16:34;7.82;;;5.35;;
58252;SDS011;44050;48.884;8.762;2023-03-05T11:19:19;9.02;;;6.13;;
58252;SDS011;44050;48.884;8.762;2023-03-05T11:24:44;15.57;;;6.95;;
58252;SDS011;44050;48.884;8.762;2023-03-05T11:30:12;10.30;;;7.43;;
58252;SDS011;44050;48.884;8.762;2023-03-05T11:32:48;9.43;;;6.78;;
58252;SDS011;44050;48.884;8.762;2023-03-05T11:35:30;16.90;;;7.18;;
58252;SDS011;44050;48.884;8.762;2023-03-05T11:38:03;10.27;;;6.13;;
58252;SDS011;44050;48.884;8.762;2023-03-05T11:40:34;13.50;;;8.02;;
58252;SDS011;44050;48.884;8.762;2023-03-05T11:43:05;11.18;;;6.10;;
58252;SDS011;44050;48.884;8.762;2023-03-05T11:45:39;11.75;;;6.60;;
58252;SDS011;44050;48.884;8.762;2023-03-05T11:50:53;12.70;;;8.20;;
58252;SDS011;44050;48.884;8.762;2023-03-05T11:53:30;8.63;;;5.85;;
58252;SDS011;44050;48.884;8.762;2023-03-05T11:56:23;9.95;;;4.78;;
58252;SDS011;44050;48.884;8.762;2023-03-05T11:59:03;9.75;;;4.97;;
58252;SDS011;44050;48.884;8.762;2023-03-05T12:01:37;10.20;;;7.90;;
58252;SDS011;44050;48.884;8.762;2023-03-05T12:04:10;11.02;;;7.45;;
58252;SDS011;44050;48.884;8.762;2023-03-05T12:06:43;9.18;;;6.97;;
58252;SDS011;44050;48.884;8.762;2023-03-05T12:09:38;13.48;;;7.55;;
58252;SDS011;44050;48.884;8.762;2023-03-05T12:17:43;14.88;;;6.72;;
58252;SDS011;44050;48.884;8.762;2023-03-05T12:20:28;9.02;;;4.30;;
58252;SDS011;44050;48.884;8.762;2023-03-05T12:23:08;13.02;;;7.03;;
58252;SDS011;44050;48.884;8.762;2023-03-05T12:25:44;11.77;;;6.50;;
58252;SDS011;44050;48.884;8.762;2023-03-05T12:33:41;9.30;;;7.10;;
58252;SDS011;44050;48.884;8.762;2023-03-05T12:38:53;13.38;;;6.88;;
58252;SDS011;44050;48.884;8.762;2023-03-05T12:41:31;9.30;;;6.88;;
58252;SDS011;44050;48.884;8.762;2023-03-05T12:46:36;13.60;;;7.80;;
58252;SDS011;44050;48.884;8.762;2023-03-05T12:51:49;12.10;;;8.48;;
58252;SDS011;44050;48.884;8.762;2023-03-05T12:54:31;11.73;;;7.35;;
58252;SDS011;44050;48.884;8.762;2023-03-05T12:57:19;9.60;;;7.05;;
58252;SDS011;44050;48.884;8.762;2023-03-05T13:00:12;8.85;;;6.05;;
58252;SDS011;44050;48.884;8.762;2023-03-05T13:02:58;9.50;;;6.55;;
58252;SDS011;44050;48.884;8.762;2023-03-05T13:11:02;10.98;;;6.65;;
58252;SDS011;44050;48.884;8.762;2023-03-05T13:13:48;11.98;;;7.22;;
58252;SDS011;44050;48.884;8.762;2023-03-05T13:16:23;13.55;;;8.85;;
58252;SDS011;44050;48.884;8.762;2023-03-05T13:18:56;13.38;;;8.10;;
58252;SDS011;44050;48.884;8.762;2023-03-05T13:21:29;9.95;;;7.55;;
58252;SDS011;44050;48.884;8.762;2023-03-05T13:24:01;17.52;;;9.50;;
58252;SDS011;44050;48.884;8.762;2023-03-05T13:26:36;8.93;;;6.88;;
58252;SDS011;44050;48.884;8.762;2023-03-05T13:29:10;11.00;;;8.63;;
58252;SDS011;44050;48.884;8.762;2023-03-05T13:36:55;11.55;;;7.35;;
58252;SDS011;44050;48.884;8.762;2023-03-05T13:39:28;9.55;;;6.10;;
58252;SDS011;44050;48.884;8.762;2023-03-05T13:42:03;12.23;;;7.50;;
58252;SDS011;44050;48.884;8.762;2023-03-05T13:44:38;12.90;;;7.97;;
58252;SDS011;44050;48.884;8.762;2023-03-05T13:47:17;11.48;;;7.32;;
58252;SDS011;44050;48.884;8.762;2023-03-05T13:49:55;12.05;;;8.18;;
58252;SDS011;44050;48.884;8.762;2023-03-05T13:52:28;12.98;;;7.35;;
58252;SDS011;44050;48.884;8.762;2023-03-05T13:55:01;10.38;;;7.38;;
58252;SDS011;44050;48.884;8.762;2023-03-05T14:03:06;13.02;;;7.88;;
58252;SDS011;44050;48.884;8.762;2023-03-05T14:05:41;17.23;;;8.60;;
58252;SDS011;44050;48.884;8.762;2023-03-05T14:08:20;12.40;;;7.43;;
58252;SDS011;44050;48.884;8.762;2023-03-05T14:10:56;11.30;;;7.82;;
58252;SDS011;44050;48.884;8.762;2023-03-05T14:13:29;11.52;;;7.90;;
58252;SDS011;44050;48.884;8.762;2023-03-05T14:18:34;11.70;;;8.35;;
58252;SDS011;44050;48.884;8.762;2023-03-05T14:21:11;17.88;;;8.13;;
58252;SDS011;44050;48.884;8.762;2023-03-05T14:23:46;9.90;;;7.70;;
58252;SDS011;44050;48.884;8.762;2023-03-05T14:28:59;11.07;;;5.43;;
58252;SDS011;44050;48.884;8.762;2023-03-05T14:31:45;12.23;;;7.40;;
58252;SDS011;44050;48.884;8.762;2023-03-05T14:34:31;16.42;;;8.48;;
58252;SDS011;44050;48.884;8.762;2023-03-05T14:37:04;12.18;;;7.40;;
58252;SDS011;44050;48.884;8.762;2023-03-05T14:39:50;11.10;;;9.27;;
58252;SDS011;44050;48.884;8.762;2023-03-05T14:42:27;12.82;;;8.00;;
58252;SDS011;44050;48.884;8.762;2023-03-05T14:44:59;11.13;;;6.03;;
58252;SDS011;44050;48.884;8.762;2023-03-05T14:47:31;8.43;;;5.75;;
58252;SDS011;44050;48.884;8.762;2023-03-05T14:50:06;14.50;;;7.70;;
58252;SDS011;44050;48.884;8.762;2023-03-05T14:52:37;12.85;;;7.50;;
58252;SDS011;44050;48.884;8.762;2023-03-05T14:55:12;11.23;;;7.78;;
58252;SDS011;44050;48.884;8.762;2023-03-05T14:57:43;13.32;;;8.25;;
58252;SDS011;44050;48.884;8.762;2023-03-05T15:00:15;11.93;;;9.48;;
58252;SDS011;44050;48.884;8.762;2023-03-05T15:02:50;14.50;;;8.27;;
58252;SDS011;44050;48.884;8.762;2023-03-05T15:05:21;12.27;;;7.57;;
58252;SDS011;44050;48.884;8.762;2023-03-05T15:07:53;10.90;;;7.47;;
58252;SDS011;44050;48.884;8.762;2023-03-05T15:10:24;13.55;;;7.28;;
58252;SDS011;44050;48.884;8.762;2023-03-05T15:15:25;5.50;;;4.33;;
58252;SDS011;44050;48.884;8.762;2023-03-05T15:17:56;4.95;;;3.95;;
58252;SDS011;44050;48.884;8.762;2023-03-05T15:20:28;9.32;;;5.55;;
58252;SDS011;44050;48.884;8.762;2023-03-05T15:22:59;6.20;;;4.28;;
58252;SDS011;44050;48.884;8.762;2023-03-05T15:25:33;11.00;;;7.43;;
58252;SDS011;44050;48.884;8.762;2023-03-05T15:28:08;6.45;;;4.38;;
58252;SDS011;44050;48.884;8.762;2023-03-05T15:30:40;8.30;;;5.32;;
58252;SDS011;44050;48.884;8.762;2023-03-05T15:33:12;7.30;;;5.88;;
58252;SDS011;44050;48.884;8.762;2023-03-05T15:35:44;9.57;;;6.55;;
58252;SDS011;44050;48.884;8.762;2023-03-05T15:38:15;14.07;;;6.40;;
58252;SDS011;44050;48.884;8.762;2023-03-05T15:41:11;10.35;;;7.57;;
58252;SDS011;44050;48.884;8.762;2023-03-05T15:43:43;13.18;;;7.70;;
58252;SDS011;44050;48.884;8.762;2023-03-05T15:46:34;13.27;;;6.07;;
58252;SDS011;44050;48.884;8.762;2023-03-05T15:49:05;10.27;;;5.20;;
58252;SDS011;44050;48.884;8.762;2023-03-05T15:51:38;11.90;;;7.95;;
58252;SDS011;44050;48.884;8.762;2023-03-05T15:54:09;12.73;;;7.80;;
58252;SDS011;44050;48.884;8.762;2023-03-05T15:56:39;9.38;;;7.53;;
58252;SDS011;44050;48.884;8.762;2023-03-05T15:59:11;10.63;;;7.57;;
58252;SDS011;44050;48.884;8.762;2023-03-05T16:01:44;15.27;;;8.45;;
58252;SDS011;44050;48.884;8.762;2023-03-05T16:04:19;13.98;;;8.40;;
58252;SDS011;44050;48.884;8.762;2023-03-05T16:06:50;10.55;;;6.95;;
58252;SDS011;44050;48.884;8.762;2023-03-05T16:09:21;14.80;;;8.52;;
58252;SDS011;44050;48.884;8.762;2023-03-05T16:11:52;12.40;;;8.45;;
58252;SDS011;44050;48.884;8.762;2023-03-05T16:14:26;11.70;;;7.57;;
58252;SDS011;44050;48.884;8.762;2023-03-05T16:16:58;10.25;;;6.95;;
58252;SDS011;44050;48.884;8.762;2023-03-05T16:19:40;10.85;;;7.68;;
58252;SDS011;44050;48.884;8.762;2023-03-05T16:22:11;14.27;;;6.65;;
58252;SDS011;44050;48.884;8.762;2023-03-05T16:24:42;16.55;;;8.02;;
58252;SDS011;44050;48.884;8.762;2023-03-05T16:27:13;11.18;;;6.68;;
58252;SDS011;44050;48.884;8.762;2023-03-05T16:29:44;10.82;;;7.30;;
58252;SDS011;44050;48.884;8.762;2023-03-05T16:32:15;11.13;;;6.97;;
58252;SDS011;44050;48.884;8.762;2023-03-05T16:34:47;7.68;;;5.35;;
58252;SDS011;44050;48.884;8.762;2023-03-05T16:37:21;10.07;;;6.85;;
58252;SDS011;44050;48.884;8.762;2023-03-05T16:39:52;16.92;;;8.77;;
58252;SDS011;44050;48.884;8.762;2023-03-05T16:42:35;15.55;;;7.28;;
58252;SDS011;44050;48.884;8.762;2023-03-05T16:45:06;13.25;;;6.95;;
58252;SDS011;44050;48.884;8.762;2023-03-05T16:47:37;5.50;;;5.00;;
58252;SDS011;44050;48.884;8.762;2023-03-05T16:50:09;11.25;;;6.93;;
58252;SDS011;44050;48.884;8.762;2023-03-05T16:52:40;10.23;;;7.03;;
58252;SDS011;44050;48.884;8.762;2023-03-05T16:55:20;8.00;;;6.00;;